createdAt,value
2022-10-21T00:00:26.047Z,18.80
2022-10-21T00:02:52.867Z,18.59
2022-10-21T00:05:19.600Z,18.83
2022-10-21T00:07:46.345Z,18.64
2022-10-21T00:10:13.606Z,18.80
2022-10-21T00:12:40.729Z,18.82
2022-10-21T00:15:08.934Z,18.73
2022-10-21T00:17:40.145Z,18.91
2022-10-21T00:20:09.383Z,18.97
2022-10-21T00:22:36.866Z,19.08
2022-10-21T00:25:04.763Z,18.87
2022-10-21T00:27:31.546Z,18.95
2022-10-21T00:29:58.303Z,18.84
2022-10-21T00:32:25.191Z,18.94
2022-10-21T00:34:52.038Z,18.81
2022-10-21T00:37:18.775Z,18.98
2022-10-21T00:39:45.610Z,19.01
2022-10-21T00:42:21.388Z,18.97
2022-10-21T00:45:06.722Z,19.02
2022-10-21T00:47:43.673Z,19.21
2022-10-21T00:50:21.413Z,18.94
2022-10-21T00:52:48.557Z,19.26
2022-10-21T00:55:15.328Z,19.26
2022-10-21T00:57:42.919Z,19.08
2022-10-21T01:00:10.129Z,19.22
2022-10-21T01:02:37.089Z,18.95
2022-10-21T01:05:04.753Z,18.95
2022-10-21T01:07:31.857Z,19.04
2022-10-21T01:09:58.617Z,19.13
2022-10-21T01:12:33.588Z,19.39
2022-10-21T01:15:09.222Z,19.21
2022-10-21T01:17:50.459Z,19.36
2022-10-21T01:20:32.665Z,19.20
2022-10-21T01:23:37.213Z,19.11
2022-10-21T01:26:09.977Z,19.07
2022-10-21T01:28:36.733Z,19.07
2022-10-21T01:31:15.659Z,19.27
2022-10-21T01:33:47.631Z,19.16
2022-10-21T01:36:29.608Z,19.15
2022-10-21T01:39:15.001Z,18.92
2022-10-21T01:41:43.930Z,19.23
2022-10-21T01:44:15.953Z,19.20
2022-10-21T01:46:44.439Z,19.13
2022-10-21T01:49:18.520Z,19.09
2022-10-21T01:51:45.549Z,19.24
2022-10-21T01:54:17.194Z,18.97
2022-10-21T01:56:44.563Z,18.87
2022-10-21T01:59:11.677Z,18.85
2022-10-21T02:01:39.184Z,18.62
2022-10-21T02:04:07.513Z,18.82
2022-10-21T02:06:34.292Z,18.92
2022-10-21T02:09:01.254Z,18.80
2022-10-21T02:11:28.975Z,18.90
2022-10-21T02:14:07.195Z,18.91
2022-10-21T02:16:37.519Z,18.56
2022-10-21T02:19:04.696Z,18.68
2022-10-21T02:21:35.575Z,18.63
2022-10-21T02:24:16.377Z,18.55
2022-10-21T02:26:43.400Z,18.17
2022-10-21T02:29:11.178Z,18.51
2022-10-21T02:32:09.568Z,18.58
2022-10-21T02:34:48.841Z,18.67
2022-10-21T02:40:15.356Z,18.60
2022-10-21T02:42:49.833Z,18.56
2022-10-21T02:45:18.027Z,18.66
2022-10-21T02:47:44.939Z,18.70
2022-10-21T02:50:12.965Z,18.63
2022-10-21T02:52:39.683Z,18.70
2022-10-21T02:55:06.751Z,18.70
2022-10-21T02:57:33.453Z,18.54
2022-10-21T03:00:00.191Z,18.54
2022-10-21T03:02:27.100Z,18.44
2022-10-21T03:04:53.749Z,18.47
2022-10-21T03:07:20.525Z,18.43
2022-10-21T03:09:47.281Z,18.06
2022-10-21T03:12:14.454Z,18.18
2022-10-21T03:14:41.311Z,18.22
2022-10-21T03:17:07.972Z,18.35
2022-10-21T03:19:34.692Z,18.20
2022-10-21T03:22:01.706Z,18.30
2022-10-21T03:24:29.156Z,18.58
2022-10-21T03:26:56.584Z,18.60
2022-10-21T03:29:23.834Z,18.28
2022-10-21T03:31:50.474Z,18.28
2022-10-21T03:34:17.558Z,18.33
2022-10-21T03:36:44.523Z,18.37
2022-10-21T03:39:12.039Z,18.60
2022-10-21T03:41:39.009Z,18.48
2022-10-21T03:44:05.897Z,18.33
2022-10-21T03:46:32.679Z,18.41
2022-10-21T03:49:03.027Z,18.29
2022-10-21T03:51:31.657Z,18.45
2022-10-21T03:53:58.575Z,18.26
2022-10-21T03:56:25.294Z,18.43
2022-10-21T03:58:56.260Z,18.10
2022-10-21T04:01:25.766Z,18.42
2022-10-21T04:03:52.612Z,18.52
2022-10-21T04:06:19.340Z,18.24
2022-10-21T04:08:46.215Z,18.23
2022-10-21T04:11:12.962Z,18.43
2022-10-21T04:13:39.694Z,18.35
2022-10-21T04:16:08.385Z,18.53
2022-10-21T04:18:35.309Z,18.48
2022-10-21T04:21:02.120Z,18.41
2022-10-21T04:23:29.083Z,18.27
2022-10-21T04:25:55.794Z,18.42
2022-10-21T04:28:22.640Z,18.28
2022-10-21T04:30:50.511Z,18.33
2022-10-21T04:33:17.430Z,18.19
2022-10-21T04:35:44.243Z,18.42
2022-10-21T04:38:11.047Z,18.39
2022-10-21T04:40:37.803Z,18.35
2022-10-21T04:43:04.629Z,18.40
2022-10-21T04:45:31.476Z,18.41
2022-10-21T04:47:58.213Z,18.49
2022-10-21T04:50:24.973Z,18.56
2022-10-21T04:52:52.004Z,18.48
2022-10-21T04:55:18.736Z,18.42
2022-10-21T04:57:46.098Z,18.49
2022-10-21T05:00:13.271Z,18.43
2022-10-21T05:02:40.736Z,18.55
2022-10-21T05:05:08.224Z,18.60
2022-10-21T05:07:35.141Z,18.70
2022-10-21T05:10:01.821Z,18.60
2022-10-21T05:12:28.985Z,18.61
2022-10-21T05:14:55.846Z,18.70
2022-10-21T05:17:22.790Z,18.69
2022-10-21T05:19:49.415Z,18.72
2022-10-21T05:22:16.271Z,18.79
2022-10-21T05:24:42.979Z,18.75
2022-10-21T05:27:09.661Z,18.73
2022-10-21T05:29:36.432Z,18.74
2022-10-21T05:32:03.744Z,18.83
2022-10-21T05:34:30.640Z,18.39
2022-10-21T05:36:57.455Z,18.44
2022-10-21T05:39:24.288Z,18.63
2022-10-21T05:41:51.132Z,18.54
2022-10-21T05:44:17.981Z,18.73
2022-10-21T05:46:44.917Z,18.28
2022-10-21T05:49:12.848Z,18.16
2022-10-21T05:51:39.716Z,17.86
2022-10-21T05:54:06.672Z,18.21
2022-10-21T05:56:33.407Z,18.38
2022-10-21T05:59:00.147Z,18.51
2022-10-21T06:01:27.736Z,18.52
2022-10-21T06:03:54.755Z,18.42
2022-10-21T06:06:21.965Z,18.65
2022-10-21T06:08:49.128Z,18.72
2022-10-21T06:11:18.485Z,18.75
2022-10-21T06:13:46.113Z,18.47
2022-10-21T06:16:13.570Z,18.37
2022-10-21T06:18:41.054Z,18.59
2022-10-21T06:21:08.448Z,18.45
2022-10-21T06:23:35.421Z,18.50
2022-10-21T06:26:05.493Z,18.46
2022-10-21T06:28:34.163Z,18.37
2022-10-21T06:31:01.651Z,18.53
2022-10-21T06:33:34.213Z,18.57
2022-10-21T06:36:01.049Z,18.72
2022-10-21T06:38:27.824Z,18.72
2022-10-21T06:41:01.614Z,18.94
2022-10-21T06:43:28.563Z,18.93
2022-10-21T06:46:10.345Z,18.98
2022-10-21T06:48:37.431Z,18.61
2022-10-21T06:51:09.713Z,18.73
2022-10-21T06:53:39.228Z,18.52
2022-10-21T06:56:11.800Z,18.79
2022-10-21T06:58:40.040Z,18.92
2022-10-21T07:01:21.444Z,19.04
2022-10-21T07:03:58.175Z,19.11
2022-10-21T07:06:24.921Z,18.99
2022-10-21T07:08:58.884Z,19.01
2022-10-21T07:11:27.222Z,19.02
2022-10-21T07:13:54.504Z,18.95
2022-10-21T07:16:27.287Z,19.05
2022-10-21T07:18:55.158Z,19.04
2022-10-21T07:21:29.060Z,19.09
2022-10-21T07:23:59.226Z,19.03
2022-10-21T07:26:28.184Z,18.51
2022-10-21T07:28:58.016Z,18.80
2022-10-21T07:31:24.669Z,18.38
2022-10-21T07:33:51.567Z,18.72
2022-10-21T07:36:24.870Z,18.82
2022-10-21T07:38:52.983Z,18.60
2022-10-21T07:41:23.549Z,18.14
2022-10-21T07:43:51.218Z,18.66
2022-10-21T07:46:21.867Z,18.51
2022-10-21T07:48:49.187Z,18.85
2022-10-21T07:51:19.365Z,18.97
2022-10-21T07:53:46.567Z,19.07
2022-10-21T07:56:15.876Z,18.83
2022-10-21T07:58:43.571Z,19.14
2022-10-21T08:01:11.213Z,18.95
2022-10-21T08:03:38.917Z,18.92
2022-10-21T08:06:07.310Z,18.86
2022-10-21T08:08:37.157Z,18.85
2022-10-21T08:11:04.810Z,18.85
2022-10-21T08:13:32.094Z,18.96
2022-10-21T08:16:06.980Z,19.18
2022-10-21T08:18:39.269Z,19.14
2022-10-21T08:21:08.079Z,18.71
2022-10-21T08:23:35.918Z,18.81
2022-10-21T08:26:03.149Z,18.88
2022-10-21T08:28:31.752Z,18.84
2022-10-21T08:31:07.045Z,18.88
2022-10-21T08:33:48.082Z,19.23
2022-10-21T08:36:22.108Z,19.21
2022-10-21T08:38:49.803Z,19.02
2022-10-21T08:41:28.809Z,19.16
2022-10-21T08:44:05.885Z,19.45
2022-10-21T08:46:54.848Z,19.64
2022-10-21T08:49:30.999Z,19.41
2022-10-21T08:52:13.642Z,19.43
2022-10-21T08:54:45.175Z,19.36
2022-10-21T08:57:12.476Z,18.93
2022-10-21T08:59:48.916Z,19.26
2022-10-21T09:02:55.421Z,19.04
2022-10-21T09:05:43.096Z,19.27
2022-10-21T09:08:23.536Z,19.14
2022-10-21T09:11:04.631Z,19.08
2022-10-21T09:14:00.691Z,18.90
2022-10-21T09:16:40.872Z,19.43
2022-10-21T09:19:19.948Z,19.58
2022-10-21T09:22:34.935Z,19.19
2022-10-21T09:25:19.242Z,19.28
2022-10-21T09:28:02.321Z,19.26
2022-10-21T09:30:29.648Z,19.11
2022-10-21T09:33:00.419Z,19.37
2022-10-21T09:35:40.728Z,19.52
2022-10-21T09:38:15.410Z,19.85
2022-10-21T09:40:49.169Z,19.88
2022-10-21T09:43:27.345Z,20.06
2022-10-21T09:45:54.621Z,19.96
2022-10-21T09:48:41.739Z,19.60
2022-10-21T09:51:32.830Z,19.79
2022-10-21T09:54:08.167Z,20.25
2022-10-21T09:56:46.880Z,19.92
2022-10-21T09:59:17.094Z,20.46
2022-10-21T10:01:49.018Z,20.23
2022-10-21T10:04:42.247Z,20.14
2022-10-21T10:07:27.934Z,20.26
2022-10-21T10:09:54.905Z,20.44
2022-10-21T10:12:24.110Z,20.31
2022-10-21T10:14:51.663Z,20.25
2022-10-21T10:17:29.090Z,20.13
2022-10-21T10:20:05.415Z,20.15
2022-10-21T10:22:47.992Z,19.92
2022-10-21T10:25:14.835Z,19.96
2022-10-21T10:28:08.663Z,20.34
2022-10-21T10:30:41.613Z,20.60
2022-10-21T10:33:19.950Z,20.66
2022-10-21T10:35:54.490Z,20.73
2022-10-21T10:38:40.711Z,20.31
2022-10-21T10:41:11.419Z,20.65
2022-10-21T10:43:53.873Z,20.19
2022-10-21T10:46:34.753Z,20.58
2022-10-21T10:49:12.608Z,20.60
2022-10-21T10:51:40.674Z,20.57
2022-10-21T10:54:07.484Z,20.63
2022-10-21T10:56:44.638Z,20.82
2022-10-21T10:59:17.510Z,20.47
2022-10-21T11:01:54.278Z,20.56
2022-10-21T11:04:37.693Z,20.79
2022-10-21T11:07:26.228Z,20.71
2022-10-21T11:09:59.397Z,20.75
2022-10-21T11:12:26.897Z,20.66
2022-10-21T11:14:55.951Z,20.48
2022-10-21T11:17:30.942Z,20.44
2022-10-21T11:20:41.131Z,20.49
2022-10-21T11:23:36.784Z,20.40
2022-10-21T11:26:11.684Z,20.54
2022-10-21T11:28:59.222Z,20.53
2022-10-21T11:31:59.604Z,20.76
2022-10-21T11:35:02.352Z,20.67
2022-10-21T11:37:36.977Z,20.75
2022-10-21T11:40:38.000Z,20.75
2022-10-21T11:43:43.447Z,20.91
2022-10-21T11:46:37.176Z,20.79
2022-10-21T11:49:22.402Z,20.82
2022-10-21T11:52:32.074Z,20.92
2022-10-21T11:55:17.162Z,21.00
2022-10-21T11:57:48.520Z,20.89
2022-10-21T12:00:26.143Z,21.01
2022-10-21T12:03:26.691Z,20.95
2022-10-21T12:05:57.405Z,20.97
2022-10-21T12:08:48.312Z,21.10
2022-10-21T12:11:28.635Z,21.01
2022-10-21T12:14:16.717Z,20.77
2022-10-21T12:16:44.358Z,21.11
2022-10-21T12:19:13.504Z,20.93
2022-10-21T12:21:43.698Z,20.88
2022-10-21T12:24:10.579Z,20.96
2022-10-21T12:27:19.471Z,21.00
2022-10-21T12:30:02.564Z,20.92
2022-10-21T12:33:04.629Z,20.76
2022-10-21T12:35:53.473Z,20.86
2022-10-21T12:38:40.102Z,21.13
2022-10-21T12:41:35.227Z,21.16
2022-10-21T12:44:27.354Z,21.41
2022-10-21T12:46:57.295Z,21.19
2022-10-21T12:49:36.553Z,21.42
2022-10-21T12:52:15.360Z,20.97
2022-10-21T12:54:58.643Z,21.05
2022-10-21T12:57:29.146Z,21.05
2022-10-21T13:00:31.448Z,21.08
2022-10-21T13:03:04.764Z,21.33
2022-10-21T13:05:37.846Z,21.06
2022-10-21T13:08:24.384Z,21.08
2022-10-21T13:11:06.512Z,21.05
2022-10-21T13:13:50.178Z,21.27
2022-10-21T13:16:20.287Z,21.06
2022-10-21T13:19:01.776Z,21.24
2022-10-21T13:21:39.308Z,21.40
2022-10-21T13:24:11.698Z,21.31
2022-10-21T13:26:48.739Z,21.59
2022-10-21T13:29:45.781Z,21.89
2022-10-21T13:32:15.501Z,21.65
2022-10-21T13:35:03.860Z,21.66
2022-10-21T13:37:42.378Z,21.67
2022-10-21T13:40:19.041Z,21.56
2022-10-21T13:43:00.579Z,21.70
2022-10-21T13:45:31.033Z,21.69
2022-10-21T13:48:06.805Z,21.61
2022-10-21T13:50:39.177Z,21.83
2022-10-21T13:53:30.385Z,21.55
2022-10-21T13:56:03.268Z,21.56
2022-10-21T13:58:36.232Z,21.45
2022-10-21T14:01:15.953Z,21.37
2022-10-21T14:03:44.154Z,21.36
2022-10-21T14:06:12.935Z,21.40
2022-10-21T14:08:45.414Z,21.27
2022-10-21T14:11:16.642Z,21.11
2022-10-21T14:13:43.771Z,21.40
2022-10-21T14:16:20.147Z,21.57
2022-10-21T14:18:48.181Z,21.71
2022-10-21T14:21:20.336Z,21.85
2022-10-21T14:23:47.556Z,21.26
2022-10-21T14:26:14.447Z,21.34
2022-10-21T14:28:41.849Z,21.34
2022-10-21T14:31:13.407Z,21.23
2022-10-21T14:33:45.175Z,21.62
2022-10-21T14:36:15.086Z,21.41
2022-10-21T14:38:54.348Z,21.18
2022-10-21T14:41:34.054Z,21.21
2022-10-21T14:44:14.367Z,21.65
2022-10-21T14:46:43.037Z,21.43
2022-10-21T14:49:22.643Z,21.66
2022-10-21T14:51:50.474Z,21.37
2022-10-21T14:54:26.509Z,21.74
2022-10-21T14:56:53.684Z,21.60
2022-10-21T14:59:26.306Z,21.86
2022-10-21T15:01:53.406Z,21.90
2022-10-21T15:04:40.768Z,21.68
2022-10-21T15:07:17.214Z,21.56
2022-10-21T15:10:12.490Z,21.62
2022-10-21T15:12:41.041Z,21.82
2022-10-21T15:15:51.061Z,21.91
2022-10-21T15:18:39.337Z,21.36
2022-10-21T15:21:10.269Z,21.29
2022-10-21T15:23:55.571Z,21.48
2022-10-21T15:26:41.517Z,21.36
2022-10-21T15:29:33.234Z,21.36
2022-10-21T15:32:00.941Z,21.67
2022-10-21T15:34:28.047Z,21.56
2022-10-21T15:36:55.385Z,21.50
2022-10-21T15:39:22.552Z,21.54
2022-10-21T15:41:53.686Z,20.97
2022-10-21T15:44:26.622Z,21.06
2022-10-21T15:46:59.341Z,21.09
2022-10-21T15:49:31.246Z,20.93
2022-10-21T15:51:58.071Z,20.97
2022-10-21T15:54:24.806Z,21.24
2022-10-21T15:56:54.491Z,21.16
2022-10-21T15:59:26.870Z,21.06
2022-10-21T16:01:54.233Z,20.93
2022-10-21T16:04:21.064Z,20.82
2022-10-21T16:06:50.115Z,20.71
2022-10-21T16:09:27.075Z,21.12
2022-10-21T16:12:01.002Z,20.87
2022-10-21T16:14:30.071Z,20.43
2022-10-21T16:17:00.840Z,20.34
2022-10-21T16:19:28.105Z,20.70
2022-10-21T16:21:55.682Z,20.80
2022-10-21T16:24:22.481Z,20.51
2022-10-21T16:26:49.951Z,20.69
2022-10-21T16:29:19.547Z,20.56
2022-10-21T16:31:46.437Z,20.47
2022-10-21T16:34:13.876Z,20.53
2022-10-21T16:36:41.020Z,20.59
2022-10-21T16:39:17.533Z,20.67
2022-10-21T16:41:44.350Z,20.61
2022-10-21T16:44:12.803Z,20.46
2022-10-21T16:46:42.405Z,20.74
2022-10-21T16:49:14.598Z,20.85
2022-10-21T16:51:42.939Z,20.87
2022-10-21T16:54:15.534Z,20.72
2022-10-21T16:56:44.114Z,20.94
2022-10-21T16:59:11.662Z,20.70
2022-10-21T17:01:39.188Z,20.90
2022-10-21T17:04:06.039Z,20.86
2022-10-21T17:06:33.067Z,20.83
2022-10-21T17:08:59.831Z,20.79
2022-10-21T17:11:38.165Z,20.73
2022-10-21T17:14:07.721Z,20.66
2022-10-21T17:16:34.639Z,20.70
2022-10-21T17:19:03.226Z,20.50
2022-10-21T17:21:32.752Z,20.57
2022-10-21T17:24:06.589Z,21.05
2022-10-21T17:26:43.331Z,20.84
2022-10-21T17:29:16.377Z,21.10
2022-10-21T17:31:44.465Z,20.81
2022-10-21T17:34:31.894Z,20.59
2022-10-21T17:36:59.634Z,20.93
2022-10-21T17:39:26.848Z,20.73
2022-10-21T17:41:59.617Z,20.55
2022-10-21T17:44:26.524Z,20.80
2022-10-21T17:46:54.650Z,20.91
2022-10-21T17:49:22.810Z,20.44
2022-10-21T17:52:14.379Z,20.47
2022-10-21T17:54:41.307Z,20.24
2022-10-21T17:57:08.040Z,20.04
2022-10-21T17:59:34.761Z,20.00
2022-10-21T18:02:01.596Z,20.09
2022-10-21T18:04:28.998Z,19.79
2022-10-21T18:06:55.887Z,19.78
2022-10-21T18:09:22.751Z,19.93
2022-10-21T18:11:50.004Z,20.08
2022-10-21T18:14:16.827Z,20.00
2022-10-21T18:16:43.578Z,19.88
2022-10-21T18:19:13.378Z,20.10
2022-10-21T18:21:40.311Z,20.12
2022-10-21T18:24:11.385Z,20.07
2022-10-21T18:26:39.882Z,20.21
2022-10-21T18:29:06.661Z,20.44
2022-10-21T18:31:35.785Z,20.39
2022-10-21T18:34:07.111Z,20.16
2022-10-21T18:36:34.378Z,20.09
2022-10-21T18:39:01.267Z,20.48
2022-10-21T18:41:28.568Z,20.53
2022-10-21T18:44:00.362Z,20.46
2022-10-21T18:46:28.640Z,20.23
2022-10-21T18:48:55.564Z,20.28
2022-10-21T18:51:23.988Z,20.15
2022-10-21T18:53:52.778Z,20.06
2022-10-21T18:56:22.420Z,20.25
2022-10-21T18:58:50.201Z,20.45
2022-10-21T19:01:17.813Z,20.42
2022-10-21T19:03:45.920Z,20.20
2022-10-21T19:06:19.329Z,19.81
2022-10-21T19:08:46.969Z,20.07
2022-10-21T19:11:13.802Z,19.91
2022-10-21T19:13:40.729Z,19.78
2022-10-21T19:16:15.102Z,19.69
2022-10-21T19:18:42.293Z,20.04
2022-10-21T19:21:09.798Z,19.97
2022-10-21T19:23:36.778Z,19.78
2022-10-21T19:26:08.291Z,19.75
2022-10-21T19:28:36.593Z,19.78
2022-10-21T19:31:03.448Z,19.73
2022-10-21T19:33:30.954Z,19.86
2022-10-21T19:36:02.032Z,19.85
2022-10-21T19:38:43.156Z,19.80
2022-10-21T19:41:12.906Z,20.20
2022-10-21T19:43:40.667Z,19.87
2022-10-21T19:46:11.666Z,20.01
2022-10-21T19:48:39.119Z,19.65
2022-10-21T19:51:15.138Z,19.77
2022-10-21T19:53:45.301Z,19.46
2022-10-21T19:56:13.377Z,19.84
2022-10-21T19:58:40.695Z,19.80
2022-10-21T20:01:10.479Z,19.77
2022-10-21T20:03:39.819Z,20.01
2022-10-21T20:06:08.016Z,19.80
2022-10-21T20:08:35.746Z,20.18
2022-10-21T20:11:06.021Z,19.99
2022-10-21T20:13:36.742Z,19.88
2022-10-21T20:16:05.614Z,20.03
2022-10-21T20:18:33.450Z,19.81
2022-10-21T20:21:07.348Z,20.05
2022-10-21T20:23:35.112Z,20.19
2022-10-21T20:26:02.401Z,20.14
2022-10-21T20:28:29.730Z,20.29
2022-10-21T20:31:02.962Z,19.61
2022-10-21T20:33:31.951Z,19.82
2022-10-21T20:36:02.798Z,20.00
2022-10-21T20:38:29.777Z,19.96
2022-10-21T20:41:03.069Z,20.00
2022-10-21T20:43:30.678Z,19.97
2022-10-21T20:46:06.520Z,19.91
2022-10-21T20:48:35.153Z,20.01
2022-10-21T20:51:02.650Z,19.93
2022-10-21T20:53:31.256Z,19.99
2022-10-21T20:55:59.539Z,20.03
2022-10-21T20:58:27.150Z,19.88
2022-10-21T21:00:54.142Z,19.96
2022-10-21T21:03:22.399Z,19.77
2022-10-21T21:05:49.232Z,19.80
2022-10-21T21:08:17.900Z,19.77
2022-10-21T21:11:18.120Z,19.81
2022-10-21T21:13:47.076Z,19.89
2022-10-21T21:16:19.071Z,20.12
2022-10-21T21:18:56.789Z,19.53
2022-10-21T21:21:27.082Z,19.63
2022-10-21T21:23:56.520Z,19.83
2022-10-21T21:26:25.812Z,19.55
2022-10-21T21:28:53.495Z,19.40
2022-10-21T21:31:22.140Z,19.46
2022-10-21T21:33:49.537Z,19.60
2022-10-21T21:36:18.153Z,19.94
2022-10-21T21:38:47.355Z,19.49
2022-10-21T21:41:15.304Z,19.92
2022-10-21T21:43:46.290Z,19.62
2022-10-21T21:46:13.351Z,19.68
2022-10-21T21:48:44.470Z,19.64
2022-10-21T21:51:16.846Z,19.63
2022-10-21T21:53:51.717Z,19.68
2022-10-21T21:56:20.080Z,19.67
2022-10-21T21:58:50.908Z,19.36
2022-10-21T22:01:23.393Z,19.68
2022-10-21T22:03:54.247Z,19.81
2022-10-21T22:06:24.036Z,19.79
2022-10-21T22:08:55.287Z,19.76
2022-10-21T22:11:29.672Z,19.44
2022-10-21T22:13:57.695Z,19.66
2022-10-21T22:16:34.179Z,19.50
2022-10-21T22:19:02.774Z,19.49
2022-10-21T22:21:31.751Z,19.64
2022-10-21T22:24:20.098Z,19.73
2022-10-21T22:26:50.467Z,19.68
2022-10-21T22:29:28.299Z,19.28
2022-10-21T22:31:55.459Z,19.20
2022-10-21T22:34:22.230Z,19.49
2022-10-21T22:36:49.348Z,19.50
2022-10-21T22:39:16.454Z,19.32
2022-10-21T22:41:43.727Z,19.39
2022-10-21T22:44:11.994Z,19.62
2022-10-21T22:46:39.481Z,19.26
2022-10-21T22:49:06.946Z,19.37
2022-10-21T22:51:33.979Z,19.37
2022-10-21T22:54:15.059Z,19.38
2022-10-21T22:56:47.792Z,19.14
2022-10-21T22:59:15.095Z,19.34
2022-10-21T23:01:41.887Z,19.30
2022-10-21T23:04:10.189Z,19.25
2022-10-21T23:06:37.120Z,19.29
2022-10-21T23:09:05.747Z,19.39
2022-10-21T23:11:32.927Z,19.44
2022-10-21T23:14:07.902Z,19.46
2022-10-21T23:16:36.635Z,19.28
2022-10-21T23:19:07.089Z,19.25
2022-10-21T23:21:34.473Z,19.25
2022-10-21T23:24:01.719Z,19.20
2022-10-21T23:26:28.473Z,19.07
2022-10-21T23:28:55.317Z,19.12
2022-10-21T23:31:22.180Z,19.26
2022-10-21T23:33:49.196Z,19.14
2022-10-21T23:36:15.998Z,19.33
2022-10-21T23:38:42.896Z,19.31
2022-10-21T23:41:09.581Z,19.15
2022-10-21T23:43:36.494Z,19.22
2022-10-21T23:46:03.307Z,18.82
2022-10-21T23:48:30.174Z,19.03
2022-10-21T23:50:56.977Z,18.90
2022-10-21T23:53:23.723Z,18.73
2022-10-21T23:55:50.468Z,19.02
2022-10-21T23:58:17.191Z,18.71
